sensor_id;sensor_type;location;lat;lon;timestamp;temperature;humidity
18126;DHT22;53956;52.442;13.284;2022-12-15T00:02:35;0.20;0.20
18126;DHT22;53956;52.442;13.284;2022-12-15T00:05:19;0.20;0.20
18126;DHT22;53956;52.442;13.284;2022-12-15T00:08:07;0.20;0.20
18126;DHT22;53956;52.442;13.284;2022-12-15T00:10:53;0.20;0.20
18126;DHT22;53956;52.442;13.284;2022-12-15T00:13:39;0.20;0.20
18126;DHT22;53956;52.442;13.284;2022-12-15T00:16:23;0.20;0.20
18126;DHT22;53956;52.442;13.284;2022-12-15T00:19:08;0.20;0.20
18126;DHT22;53956;52.442;13.284;2022-12-15T00:21:52;0.20;0.20
18126;DHT22;53956;52.442;13.284;2022-12-15T00:24:36;0.20;0.20
18126;DHT22;53956;52.442;13.284;2022-12-15T00:27:21;0.20;0.20
18126;DHT22;53956;52.442;13.284;2022-12-15T00:30:08;0.20;0.20
18126;DHT22;53956;52.442;13.284;2022-12-15T00:32:53;0.20;0.20
18126;DHT22;53956;52.442;13.284;2022-12-15T00:35:37;0.20;0.20
18126;DHT22;53956;52.442;13.284;2022-12-15T00:38:22;0.20;0.20
18126;DHT22;53956;52.442;13.284;2022-12-15T00:41:09;0.20;0.20
18126;DHT22;53956;52.442;13.284;2022-12-15T00:43:36;0.20;0.20
18126;DHT22;53956;52.442;13.284;2022-12-15T00:46:04;0.20;0.20
18126;DHT22;53956;52.442;13.284;2022-12-15T00:48:49;0.20;0.20
18126;DHT22;53956;52.442;13.284;2022-12-15T00:51:16;0.20;0.20
18126;DHT22;53956;52.442;13.284;2022-12-15T00:53:43;0.20;0.20
18126;DHT22;53956;52.442;13.284;2022-12-15T00:56:28;0.20;0.20
18126;DHT22;53956;52.442;13.284;2022-12-15T00:59:12;0.20;0.20
18126;DHT22;53956;52.442;13.284;2022-12-15T01:01:59;0.20;0.20
18126;DHT22;53956;52.442;13.284;2022-12-15T01:04:43;0.20;0.20
18126;DHT22;53956;52.442;13.284;2022-12-15T01:07:27;0.20;0.20
18126;DHT22;53956;52.442;13.284;2022-12-15T01:10:12;0.20;0.20
18126;DHT22;53956;52.442;13.284;2022-12-15T01:12:56;0.20;0.20
18126;DHT22;53956;52.442;13.284;2022-12-15T01:15:41;0.20;0.20
18126;DHT22;53956;52.442;13.284;2022-12-15T01:18:26;0.20;0.20
18126;DHT22;53956;52.442;13.284;2022-12-15T01:21:11;0.20;0.20
18126;DHT22;53956;52.442;13.284;2022-12-15T01:23:40;0.20;0.20
18126;DHT22;53956;52.442;13.284;2022-12-15T01:26:07;0.20;0.20
18126;DHT22;53956;52.442;13.284;2022-12-15T01:28:34;0.20;0.20
18126;DHT22;53956;52.442;13.284;2022-12-15T01:31:00;0.20;0.20
18126;DHT22;53956;52.442;13.284;2022-12-15T01:33:28;0.20;0.20
18126;DHT22;53956;52.442;13.284;2022-12-15T01:35:56;0.20;0.20
18126;DHT22;53956;52.442;13.284;2022-12-15T01:38:24;0.20;0.20
18126;DHT22;53956;52.442;13.284;2022-12-15T01:40:52;0.20;0.20
18126;DHT22;53956;52.442;13.284;2022-12-15T01:43:20;0.20;0.20
18126;DHT22;53956;52.442;13.284;2022-12-15T01:45:56;0.20;0.20
18126;DHT22;53956;52.442;13.284;2022-12-15T01:48:38;0.20;0.20
18126;DHT22;53956;52.442;13.284;2022-12-15T01:51:11;0.20;0.20
18126;DHT22;53956;52.442;13.284;2022-12-15T01:53:42;0.20;0.20
18126;DHT22;53956;52.442;13.284;2022-12-15T01:56:10;0.20;0.20
18126;DHT22;53956;52.442;13.284;2022-12-15T01:58:40;0.20;0.20
18126;DHT22;53956;52.442;13.284;2022-12-15T02:01:08;0.20;0.20
18126;DHT22;53956;52.442;13.284;2022-12-15T02:03:37;0.20;0.20
18126;DHT22;53956;52.442;13.284;2022-12-15T02:06:05;0.20;0.20
18126;DHT22;53956;52.442;13.284;2022-12-15T02:08:34;0.20;0.20
18126;DHT22;53956;52.442;13.284;2022-12-15T02:11:16;0.20;0.20
18126;DHT22;53956;52.442;13.284;2022-12-15T02:13:54;0.20;0.20
18126;DHT22;53956;52.442;13.284;2022-12-15T02:16:30;0.20;0.20
18126;DHT22;53956;52.442;13.284;2022-12-15T02:19:19;0.20;0.20
18126;DHT22;53956;52.442;13.284;2022-12-15T02:22:01;0.20;0.20
18126;DHT22;53956;52.442;13.284;2022-12-15T02:24:47;0.20;0.20
18126;DHT22;53956;52.442;13.284;2022-12-15T02:27:29;0.20;0.20
18126;DHT22;53956;52.442;13.284;2022-12-15T02:30:12;0.20;0.20
18126;DHT22;53956;52.442;13.284;2022-12-15T02:32:42;0.20;0.20
18126;DHT22;53956;52.442;13.284;2022-12-15T02:35:19;0.20;0.20
18126;DHT22;53956;52.442;13.284;2022-12-15T02:37:46;0.20;0.20
18126;DHT22;53956;52.442;13.284;2022-12-15T02:40:13;0.20;0.20
18126;DHT22;53956;52.442;13.284;2022-12-15T02:42:43;0.20;0.20
18126;DHT22;53956;52.442;13.284;2022-12-15T02:45:13;0.20;0.20
18126;DHT22;53956;52.442;13.284;2022-12-15T02:47:45;0.20;0.20
18126;DHT22;53956;52.442;13.284;2022-12-15T02:50:31;0.20;0.20
18126;DHT22;53956;52.442;13.284;2022-12-15T02:53:14;0.20;0.20
18126;DHT22;53956;52.442;13.284;2022-12-15T02:55:52;0.20;0.20
18126;DHT22;53956;52.442;13.284;2022-12-15T02:58:26;0.20;0.20
18126;DHT22;53956;52.442;13.284;2022-12-15T03:00:58;0.20;0.20
18126;DHT22;53956;52.442;13.284;2022-12-15T03:03:28;0.20;0.20
18126;DHT22;53956;52.442;13.284;2022-12-15T03:05:56;0.20;0.20
18126;DHT22;53956;52.442;13.284;2022-12-15T03:08:27;0.20;0.20
18126;DHT22;53956;52.442;13.284;2022-12-15T03:10:54;0.20;0.20
18126;DHT22;53956;52.442;13.284;2022-12-15T03:13:22;0.20;0.20
18126;DHT22;53956;52.442;13.284;2022-12-15T03:15:49;0.20;0.20
18126;DHT22;53956;52.442;13.284;2022-12-15T03:18:18;0.20;0.20
18126;DHT22;53956;52.442;13.284;2022-12-15T03:20:48;0.20;0.20
18126;DHT22;53956;52.442;13.284;2022-12-15T03:23:15;0.20;0.20
18126;DHT22;53956;52.442;13.284;2022-12-15T03:25:43;0.20;0.20
18126;DHT22;53956;52.442;13.284;2022-12-15T03:28:10;0.20;0.20
18126;DHT22;53956;52.442;13.284;2022-12-15T03:30:36;0.20;0.20
18126;DHT22;53956;52.442;13.284;2022-12-15T03:33:03;0.20;0.20
18126;DHT22;53956;52.442;13.284;2022-12-15T03:35:31;0.20;0.20
18126;DHT22;53956;52.442;13.284;2022-12-15T03:37:58;0.20;0.20
18126;DHT22;53956;52.442;13.284;2022-12-15T03:40:25;0.20;0.20
18126;DHT22;53956;52.442;13.284;2022-12-15T03:42:52;0.20;0.20
18126;DHT22;53956;52.442;13.284;2022-12-15T03:45:20;0.20;0.20
18126;DHT22;53956;52.442;13.284;2022-12-15T03:47:48;0.20;0.20
18126;DHT22;53956;52.442;13.284;2022-12-15T03:50:16;0.20;0.20
18126;DHT22;53956;52.442;13.284;2022-12-15T03:52:49;0.20;0.20
18126;DHT22;53956;52.442;13.284;2022-12-15T03:55:16;0.20;0.20
18126;DHT22;53956;52.442;13.284;2022-12-15T03:57:42;0.20;0.20
18126;DHT22;53956;52.442;13.284;2022-12-15T04:00:12;0.20;0.20
18126;DHT22;53956;52.442;13.284;2022-12-15T04:02:40;0.20;0.20
18126;DHT22;53956;52.442;13.284;2022-12-15T04:05:12;0.20;0.20
18126;DHT22;53956;52.442;13.284;2022-12-15T04:07:40;0.20;0.20
18126;DHT22;53956;52.442;13.284;2022-12-15T04:10:09;0.20;0.20
18126;DHT22;53956;52.442;13.284;2022-12-15T04:12:35;0.20;0.20
18126;DHT22;53956;52.442;13.284;2022-12-15T04:15:05;0.20;0.20
18126;DHT22;53956;52.442;13.284;2022-12-15T04:17:32;0.20;0.20
18126;DHT22;53956;52.442;13.284;2022-12-15T04:19:59;0.20;0.20
18126;DHT22;53956;52.442;13.284;2022-12-15T04:22:36;0.20;0.20
18126;DHT22;53956;52.442;13.284;2022-12-15T04:25:04;0.20;0.20
18126;DHT22;53956;52.442;13.284;2022-12-15T04:27:49;0.20;0.20
18126;DHT22;53956;52.442;13.284;2022-12-15T04:30:34;0.20;0.20
18126;DHT22;53956;52.442;13.284;2022-12-15T04:33:19;0.20;0.20
18126;DHT22;53956;52.442;13.284;2022-12-15T04:36:05;0.20;0.20
18126;DHT22;53956;52.442;13.284;2022-12-15T04:38:50;0.20;0.20
18126;DHT22;53956;52.442;13.284;2022-12-15T04:41:34;0.20;0.20
18126;DHT22;53956;52.442;13.284;2022-12-15T04:44:20;0.20;0.20
18126;DHT22;53956;52.442;13.284;2022-12-15T04:47:04;0.20;0.20
18126;DHT22;53956;52.442;13.284;2022-12-15T04:49:49;0.20;0.20
18126;DHT22;53956;52.442;13.284;2022-12-15T04:52:33;0.20;0.20
18126;DHT22;53956;52.442;13.284;2022-12-15T04:55:18;0.20;0.20
18126;DHT22;53956;52.442;13.284;2022-12-15T04:58:06;0.20;0.20
18126;DHT22;53956;52.442;13.284;2022-12-15T05:00:52;0.20;0.20
18126;DHT22;53956;52.442;13.284;2022-12-15T05:03:36;0.20;0.20
18126;DHT22;53956;52.442;13.284;2022-12-15T05:06:21;0.20;0.20
18126;DHT22;53956;52.442;13.284;2022-12-15T05:09:05;0.20;0.20
18126;DHT22;53956;52.442;13.284;2022-12-15T05:11:49;0.20;0.20
18126;DHT22;53956;52.442;13.284;2022-12-15T05:14:34;0.20;0.20
18126;DHT22;53956;52.442;13.284;2022-12-15T05:17:20;0.20;0.20
18126;DHT22;53956;52.442;13.284;2022-12-15T05:20:05;0.20;0.20
18126;DHT22;53956;52.442;13.284;2022-12-15T05:22:52;0.20;0.20
18126;DHT22;53956;52.442;13.284;2022-12-15T05:25:36;0.20;0.20
18126;DHT22;53956;52.442;13.284;2022-12-15T05:28:21;0.20;0.20
18126;DHT22;53956;52.442;13.284;2022-12-15T05:31:06;0.20;0.20
18126;DHT22;53956;52.442;13.284;2022-12-15T05:33:53;0.20;0.20
18126;DHT22;53956;52.442;13.284;2022-12-15T05:36:20;0.20;0.20
18126;DHT22;53956;52.442;13.284;2022-12-15T05:38:47;0.20;0.20
18126;DHT22;53956;52.442;13.284;2022-12-15T05:41:14;0.20;0.20
18126;DHT22;53956;52.442;13.284;2022-12-15T05:43:41;0.20;0.20
18126;DHT22;53956;52.442;13.284;2022-12-15T05:46:08;0.20;0.20
18126;DHT22;53956;52.442;13.284;2022-12-15T05:48:34;0.20;0.20
18126;DHT22;53956;52.442;13.284;2022-12-15T05:51:04;0.20;0.20
18126;DHT22;53956;52.442;13.284;2022-12-15T05:53:32;0.20;0.20
18126;DHT22;53956;52.442;13.284;2022-12-15T05:56:02;0.20;0.20
18126;DHT22;53956;52.442;13.284;2022-12-15T05:58:29;0.20;0.20
18126;DHT22;53956;52.442;13.284;2022-12-15T06:01:02;0.20;0.20
18126;DHT22;53956;52.442;13.284;2022-12-15T06:03:28;0.20;0.20
18126;DHT22;53956;52.442;13.284;2022-12-15T06:05:56;0.20;0.20
18126;DHT22;53956;52.442;13.284;2022-12-15T06:08:24;0.20;0.20
18126;DHT22;53956;52.442;13.284;2022-12-15T06:10:51;0.20;0.20
18126;DHT22;53956;52.442;13.284;2022-12-15T06:13:18;0.20;0.20
18126;DHT22;53956;52.442;13.284;2022-12-15T06:15:53;0.20;0.20
18126;DHT22;53956;52.442;13.284;2022-12-15T06:18:20;0.20;0.20
18126;DHT22;53956;52.442;13.284;2022-12-15T06:20:47;0.20;0.20
18126;DHT22;53956;52.442;13.284;2022-12-15T06:23:13;0.20;0.20
18126;DHT22;53956;52.442;13.284;2022-12-15T06:25:41;0.20;0.20
18126;DHT22;53956;52.442;13.284;2022-12-15T06:28:08;0.20;0.20
18126;DHT22;53956;52.442;13.284;2022-12-15T06:30:34;0.20;0.20
18126;DHT22;53956;52.442;13.284;2022-12-15T06:33:02;0.20;0.20
18126;DHT22;53956;52.442;13.284;2022-12-15T06:35:28;0.20;0.20
18126;DHT22;53956;52.442;13.284;2022-12-15T06:37:55;0.20;0.20
18126;DHT22;53956;52.442;13.284;2022-12-15T06:40:22;0.20;0.20
18126;DHT22;53956;52.442;13.284;2022-12-15T06:42:49;0.20;0.20
18126;DHT22;53956;52.442;13.284;2022-12-15T06:45:16;0.20;0.20
18126;DHT22;53956;52.442;13.284;2022-12-15T06:47:43;0.20;0.20
18126;DHT22;53956;52.442;13.284;2022-12-15T06:50:09;0.20;0.20
18126;DHT22;53956;52.442;13.284;2022-12-15T06:52:36;0.20;0.20
18126;DHT22;53956;52.442;13.284;2022-12-15T06:55:03;0.20;0.20
18126;DHT22;53956;52.442;13.284;2022-12-15T06:57:30;0.20;0.20
18126;DHT22;53956;52.442;13.284;2022-12-15T06:59:58;0.20;0.20
18126;DHT22;53956;52.442;13.284;2022-12-15T07:02:25;0.20;0.20
18126;DHT22;53956;52.442;13.284;2022-12-15T07:04:51;0.20;0.20
18126;DHT22;53956;52.442;13.284;2022-12-15T07:07:18;0.20;0.20
18126;DHT22;53956;52.442;13.284;2022-12-15T07:09:45;0.20;0.20
18126;DHT22;53956;52.442;13.284;2022-12-15T07:12:11;0.20;0.20
18126;DHT22;53956;52.442;13.284;2022-12-15T07:14:38;0.20;0.20
18126;DHT22;53956;52.442;13.284;2022-12-15T07:17:06;0.20;0.20
18126;DHT22;53956;52.442;13.284;2022-12-15T07:19:34;0.20;0.20
18126;DHT22;53956;52.442;13.284;2022-12-15T07:22:01;0.20;0.20
18126;DHT22;53956;52.442;13.284;2022-12-15T07:24:27;0.20;0.20
18126;DHT22;53956;52.442;13.284;2022-12-15T07:26:54;0.20;0.20
18126;DHT22;53956;52.442;13.284;2022-12-15T07:29:21;0.20;0.20
18126;DHT22;53956;52.442;13.284;2022-12-15T07:31:48;0.20;0.20
18126;DHT22;53956;52.442;13.284;2022-12-15T07:34:16;0.20;0.20
18126;DHT22;53956;52.442;13.284;2022-12-15T07:36:43;0.20;0.20
18126;DHT22;53956;52.442;13.284;2022-12-15T07:39:09;0.20;0.20
18126;DHT22;53956;52.442;13.284;2022-12-15T07:41:37;0.20;0.20
18126;DHT22;53956;52.442;13.284;2022-12-15T07:44:04;0.20;0.20
18126;DHT22;53956;52.442;13.284;2022-12-15T07:46:31;0.20;0.20
18126;DHT22;53956;52.442;13.284;2022-12-15T07:48:58;0.20;0.20
18126;DHT22;53956;52.442;13.284;2022-12-15T07:51:26;0.20;0.20
18126;DHT22;53956;52.442;13.284;2022-12-15T07:53:53;0.20;0.20
18126;DHT22;53956;52.442;13.284;2022-12-15T07:56:19;0.20;0.20
18126;DHT22;53956;52.442;13.284;2022-12-15T07:58:46;0.20;0.20
18126;DHT22;53956;52.442;13.284;2022-12-15T08:01:14;0.20;0.20
18126;DHT22;53956;52.442;13.284;2022-12-15T08:03:40;0.20;0.20
18126;DHT22;53956;52.442;13.284;2022-12-15T08:06:09;0.20;0.20
18126;DHT22;53956;52.442;13.284;2022-12-15T08:08:38;0.20;0.20
18126;DHT22;53956;52.442;13.284;2022-12-15T08:11:05;0.20;0.20
18126;DHT22;53956;52.442;13.284;2022-12-15T08:13:32;0.20;0.20
18126;DHT22;53956;52.442;13.284;2022-12-15T08:15:59;0.20;0.20
18126;DHT22;53956;52.442;13.284;2022-12-15T08:18:26;0.20;0.20
18126;DHT22;53956;52.442;13.284;2022-12-15T08:20:53;0.20;0.20
18126;DHT22;53956;52.442;13.284;2022-12-15T08:23:19;0.20;0.20
18126;DHT22;53956;52.442;13.284;2022-12-15T08:25:47;0.20;0.20
18126;DHT22;53956;52.442;13.284;2022-12-15T08:28:14;0.20;0.20
18126;DHT22;53956;52.442;13.284;2022-12-15T08:30:40;0.20;0.20
18126;DHT22;53956;52.442;13.284;2022-12-15T08:33:07;0.20;0.20
18126;DHT22;53956;52.442;13.284;2022-12-15T08:35:34;0.20;0.20
18126;DHT22;53956;52.442;13.284;2022-12-15T08:38:00;0.20;0.20
18126;DHT22;53956;52.442;13.284;2022-12-15T08:40:27;0.20;0.20
18126;DHT22;53956;52.442;13.284;2022-12-15T08:42:55;0.20;0.20
18126;DHT22;53956;52.442;13.284;2022-12-15T08:45:22;0.20;0.20
18126;DHT22;53956;52.442;13.284;2022-12-15T08:47:48;0.20;0.20
18126;DHT22;53956;52.442;13.284;2022-12-15T08:50:15;0.20;0.20
18126;DHT22;53956;52.442;13.284;2022-12-15T08:52:42;0.20;0.20
18126;DHT22;53956;52.442;13.284;2022-12-15T08:55:09;0.20;0.20
18126;DHT22;53956;52.442;13.284;2022-12-15T08:57:37;0.20;0.20
18126;DHT22;53956;52.442;13.284;2022-12-15T09:00:07;0.20;0.20
18126;DHT22;53956;52.442;13.284;2022-12-15T09:02:35;0.20;0.20
18126;DHT22;53956;52.442;13.284;2022-12-15T09:05:01;0.20;0.20
18126;DHT22;53956;52.442;13.284;2022-12-15T09:07:30;0.20;0.20
18126;DHT22;53956;52.442;13.284;2022-12-15T09:09:57;0.20;0.20
18126;DHT22;53956;52.442;13.284;2022-12-15T09:12:24;0.20;0.20
18126;DHT22;53956;52.442;13.284;2022-12-15T09:14:50;0.20;0.20
18126;DHT22;53956;52.442;13.284;2022-12-15T09:17:18;0.20;0.20
18126;DHT22;53956;52.442;13.284;2022-12-15T09:19:45;0.20;0.20
18126;DHT22;53956;52.442;13.284;2022-12-15T09:22:11;0.20;0.20
18126;DHT22;53956;52.442;13.284;2022-12-15T09:24:38;0.20;0.20
18126;DHT22;53956;52.442;13.284;2022-12-15T09:27:05;0.20;0.20
18126;DHT22;53956;52.442;13.284;2022-12-15T09:29:32;0.20;0.20
18126;DHT22;53956;52.442;13.284;2022-12-15T09:31:59;0.20;0.20
18126;DHT22;53956;52.442;13.284;2022-12-15T09:34:27;0.20;0.20
18126;DHT22;53956;52.442;13.284;2022-12-15T09:36:54;0.20;0.20
18126;DHT22;53956;52.442;13.284;2022-12-15T09:39:21;0.20;0.20
18126;DHT22;53956;52.442;13.284;2022-12-15T09:41:54;0.20;0.20
18126;DHT22;53956;52.442;13.284;2022-12-15T09:44:25;0.20;0.20
18126;DHT22;53956;52.442;13.284;2022-12-15T09:47:02;0.20;0.20
18126;DHT22;53956;52.442;13.284;2022-12-15T09:49:43;0.20;0.20
18126;DHT22;53956;52.442;13.284;2022-12-15T09:52:14;0.20;0.20
18126;DHT22;53956;52.442;13.284;2022-12-15T09:54:42;0.20;0.20
18126;DHT22;53956;52.442;13.284;2022-12-15T09:57:15;0.20;0.20
18126;DHT22;53956;52.442;13.284;2022-12-15T09:59:56;0.20;0.20
18126;DHT22;53956;52.442;13.284;2022-12-15T10:05:36;0.20;0.20
18126;DHT22;53956;52.442;13.284;2022-12-15T10:08:03;0.20;0.20
18126;DHT22;53956;52.442;13.284;2022-12-15T10:10:33;0.20;0.20
18126;DHT22;53956;52.442;13.284;2022-12-15T10:13:08;0.20;0.20
18126;DHT22;53956;52.442;13.284;2022-12-15T10:15:40;0.20;0.20
18126;DHT22;53956;52.442;13.284;2022-12-15T10:18:17;0.20;0.20
18126;DHT22;53956;52.442;13.284;2022-12-15T10:20:47;0.20;0.20
18126;DHT22;53956;52.442;13.284;2022-12-15T10:23:16;0.20;0.20
18126;DHT22;53956;52.442;13.284;2022-12-15T10:25:47;0.20;0.20
18126;DHT22;53956;52.442;13.284;2022-12-15T10:28:38;0.20;0.20
18126;DHT22;53956;52.442;13.284;2022-12-15T10:31:17;0.20;0.20
18126;DHT22;53956;52.442;13.284;2022-12-15T10:33:48;0.20;0.20
18126;DHT22;53956;52.442;13.284;2022-12-15T10:36:17;0.20;0.20
18126;DHT22;53956;52.442;13.284;2022-12-15T10:38:45;0.20;0.20
18126;DHT22;53956;52.442;13.284;2022-12-15T10:41:14;0.20;0.20
18126;DHT22;53956;52.442;13.284;2022-12-15T10:43:43;0.20;0.20
18126;DHT22;53956;52.442;13.284;2022-12-15T10:46:12;0.20;0.20
18126;DHT22;53956;52.442;13.284;2022-12-15T10:48:40;0.20;0.20
18126;DHT22;53956;52.442;13.284;2022-12-15T10:51:14;0.20;0.20
18126;DHT22;53956;52.442;13.284;2022-12-15T10:53:46;0.20;0.20
18126;DHT22;53956;52.442;13.284;2022-12-15T10:56:19;0.20;0.20
18126;DHT22;53956;52.442;13.284;2022-12-15T10:58:47;0.20;0.20
18126;DHT22;53956;52.442;13.284;2022-12-15T11:01:18;0.20;0.20
18126;DHT22;53956;52.442;13.284;2022-12-15T11:03:45;0.20;0.20
18126;DHT22;53956;52.442;13.284;2022-12-15T11:06:18;0.20;0.20
18126;DHT22;53956;52.442;13.284;2022-12-15T11:08:49;0.20;0.20
18126;DHT22;53956;52.442;13.284;2022-12-15T11:11:30;0.20;0.20
18126;DHT22;53956;52.442;13.284;2022-12-15T11:14:40;0.20;0.20
18126;DHT22;53956;52.442;13.284;2022-12-15T11:17:07;0.20;0.20
18126;DHT22;53956;52.442;13.284;2022-12-15T11:19:37;0.20;0.20
18126;DHT22;53956;52.442;13.284;2022-12-15T11:22:09;0.20;0.20
18126;DHT22;53956;52.442;13.284;2022-12-15T11:24:44;0.20;0.20
18126;DHT22;53956;52.442;13.284;2022-12-15T11:27:17;-3276.40;91.80
18126;DHT22;53956;52.442;13.284;2022-12-15T11:29:56;-3276.50;92.30
18126;DHT22;53956;52.442;13.284;2022-12-15T11:32:27;-3276.40;92.30
18126;DHT22;53956;52.442;13.284;2022-12-15T11:34:55;-3276.40;92.30
18126;DHT22;53956;52.442;13.284;2022-12-15T11:37:35;-3276.60;92.00
18126;DHT22;53956;52.442;13.284;2022-12-15T11:40:33;0.00;92.00
18126;DHT22;53956;52.442;13.284;2022-12-15T11:43:15;-3276.60;92.10
18126;DHT22;53956;52.442;13.284;2022-12-15T11:45:53;-3276.70;92.30
18126;DHT22;53956;52.442;13.284;2022-12-15T11:48:28;-3276.70;92.00
18126;DHT22;53956;52.442;13.284;2022-12-15T11:51:00;0.00;91.90
18126;DHT22;53956;52.442;13.284;2022-12-15T11:53:40;0.00;92.00
18126;DHT22;53956;52.442;13.284;2022-12-15T11:56:20;-3276.60;93.10
18126;DHT22;53956;52.442;13.284;2022-12-15T11:59:01;0.00;92.90
18126;DHT22;53956;52.442;13.284;2022-12-15T12:01:48;-3276.70;92.70
18126;DHT22;53956;52.442;13.284;2022-12-15T12:04:22;0.00;92.80
18126;DHT22;53956;52.442;13.284;2022-12-15T12:07:00;0.00;92.90
18126;DHT22;53956;52.442;13.284;2022-12-15T12:09:32;0.20;93.10
18126;DHT22;53956;52.442;13.284;2022-12-15T12:12:09;0.20;92.40
18126;DHT22;53956;52.442;13.284;2022-12-15T12:14:46;0.20;92.80
18126;DHT22;53956;52.442;13.284;2022-12-15T12:17:20;0.10;93.20
18126;DHT22;53956;52.442;13.284;2022-12-15T12:19:52;0.20;93.10
18126;DHT22;53956;52.442;13.284;2022-12-15T12:22:23;0.20;92.70
18126;DHT22;53956;52.442;13.284;2022-12-15T12:24:54;0.30;92.50
18126;DHT22;53956;52.442;13.284;2022-12-15T12:27:27;0.30;92.90
18126;DHT22;53956;52.442;13.284;2022-12-15T12:30:01;0.50;92.50
18126;DHT22;53956;52.442;13.284;2022-12-15T12:32:36;0.30;93.40
18126;DHT22;53956;52.442;13.284;2022-12-15T12:35:09;0.60;92.80
18126;DHT22;53956;52.442;13.284;2022-12-15T12:37:42;0.40;93.20
18126;DHT22;53956;52.442;13.284;2022-12-15T12:40:16;0.40;93.70
18126;DHT22;53956;52.442;13.284;2022-12-15T12:42:50;0.40;93.60
18126;DHT22;53956;52.442;13.284;2022-12-15T12:45:19;0.50;93.70
18126;DHT22;53956;52.442;13.284;2022-12-15T12:47:52;0.60;94.00
18126;DHT22;53956;52.442;13.284;2022-12-15T12:50:21;0.40;94.70
18126;DHT22;53956;52.442;13.284;2022-12-15T12:52:51;0.40;94.40
18126;DHT22;53956;52.442;13.284;2022-12-15T12:55:27;0.80;94.00
18126;DHT22;53956;52.442;13.284;2022-12-15T12:57:56;0.40;94.50
18126;DHT22;53956;52.442;13.284;2022-12-15T13:00:25;0.60;94.50
18126;DHT22;53956;52.442;13.284;2022-12-15T13:03:17;0.70;94.90
18126;DHT22;53956;52.442;13.284;2022-12-15T13:05:49;0.50;95.10
18126;DHT22;53956;52.442;13.284;2022-12-15T13:14:46;0.40;95.50
18126;DHT22;53956;52.442;13.284;2022-12-15T13:17:22;0.50;95.60
18126;DHT22;53956;52.442;13.284;2022-12-15T13:20:19;0.50;95.90
18126;DHT22;53956;52.442;13.284;2022-12-15T13:22:47;0.50;95.90
18126;DHT22;53956;52.442;13.284;2022-12-15T13:25:32;0.40;95.60
18126;DHT22;53956;52.442;13.284;2022-12-15T13:28:09;0.40;96.20
18126;DHT22;53956;52.442;13.284;2022-12-15T13:34:05;0.50;95.60
18126;DHT22;53956;52.442;13.284;2022-12-15T13:36:52;0.60;95.40
18126;DHT22;53956;52.442;13.284;2022-12-15T13:42:34;0.40;95.20
18126;DHT22;53956;52.442;13.284;2022-12-15T13:45:28;0.50;95.60
18126;DHT22;53956;52.442;13.284;2022-12-15T13:47:57;0.70;95.60
18126;DHT22;53956;52.442;13.284;2022-12-15T13:50:35;0.90;95.20
18126;DHT22;53956;52.442;13.284;2022-12-15T13:53:09;0.90;96.20
18126;DHT22;53956;52.442;13.284;2022-12-15T13:55:54;0.80;95.10
18126;DHT22;53956;52.442;13.284;2022-12-15T13:58:23;0.80;95.80
18126;DHT22;53956;52.442;13.284;2022-12-15T14:00:52;0.90;95.60
18126;DHT22;53956;52.442;13.284;2022-12-15T14:03:19;0.60;95.80
18126;DHT22;53956;52.442;13.284;2022-12-15T14:05:49;0.70;95.90
18126;DHT22;53956;52.442;13.284;2022-12-15T14:08:18;0.60;95.60
18126;DHT22;53956;52.442;13.284;2022-12-15T14:10:48;0.90;95.70
18126;DHT22;53956;52.442;13.284;2022-12-15T14:13:19;0.70;95.50
18126;DHT22;53956;52.442;13.284;2022-12-15T14:15:51;0.70;95.60
18126;DHT22;53956;52.442;13.284;2022-12-15T14:18:24;0.50;95.50
18126;DHT22;53956;52.442;13.284;2022-12-15T14:20:53;0.70;95.60
18126;DHT22;53956;52.442;13.284;2022-12-15T14:23:21;0.60;95.40
18126;DHT22;53956;52.442;13.284;2022-12-15T14:25:53;0.70;95.80
18126;DHT22;53956;52.442;13.284;2022-12-15T14:28:26;0.70;95.80
18126;DHT22;53956;52.442;13.284;2022-12-15T14:30:57;0.60;96.00
18126;DHT22;53956;52.442;13.284;2022-12-15T14:33:24;0.60;96.00
18126;DHT22;53956;52.442;13.284;2022-12-15T14:35:54;0.40;95.90
18126;DHT22;53956;52.442;13.284;2022-12-15T14:38:25;0.30;95.90
18126;DHT22;53956;52.442;13.284;2022-12-15T14:40:55;0.40;97.20
18126;DHT22;53956;52.442;13.284;2022-12-15T14:43:25;0.30;96.80
18126;DHT22;53956;52.442;13.284;2022-12-15T14:45:54;0.40;96.30
18126;DHT22;53956;52.442;13.284;2022-12-15T14:48:26;0.40;96.30
18126;DHT22;53956;52.442;13.284;2022-12-15T14:50:58;0.40;96.10
18126;DHT22;53956;52.442;13.284;2022-12-15T14:53:28;0.50;96.40
18126;DHT22;53956;52.442;13.284;2022-12-15T14:55:56;0.40;96.60
18126;DHT22;53956;52.442;13.284;2022-12-15T14:58:29;0.40;96.60
18126;DHT22;53956;52.442;13.284;2022-12-15T15:00:58;0.40;96.90
18126;DHT22;53956;52.442;13.284;2022-12-15T15:03:32;0.30;97.60
18126;DHT22;53956;52.442;13.284;2022-12-15T15:06:04;0.10;97.40
18126;DHT22;53956;52.442;13.284;2022-12-15T15:08:34;0.10;97.90
18126;DHT22;53956;52.442;13.284;2022-12-15T15:11:16;0.20;97.30
18126;DHT22;53956;52.442;13.284;2022-12-15T15:13:44;0.20;98.10
18126;DHT22;53956;52.442;13.284;2022-12-15T15:16:14;0.20;97.60
18126;DHT22;53956;52.442;13.284;2022-12-15T15:18:42;0.10;97.90
18126;DHT22;53956;52.442;13.284;2022-12-15T15:21:16;0.00;98.10
18126;DHT22;53956;52.442;13.284;2022-12-15T15:23:57;0.00;98.00
18126;DHT22;53956;52.442;13.284;2022-12-15T15:26:25;0.20;98.00
18126;DHT22;53956;52.442;13.284;2022-12-15T15:28:52;0.40;98.10
18126;DHT22;53956;52.442;13.284;2022-12-15T15:31:26;0.00;98.30
18126;DHT22;53956;52.442;13.284;2022-12-15T15:33:54;0.10;98.80
18126;DHT22;53956;52.442;13.284;2022-12-15T15:36:25;0.10;98.70
18126;DHT22;53956;52.442;13.284;2022-12-15T15:38:53;0.00;98.90
18126;DHT22;53956;52.442;13.284;2022-12-15T15:41:24;0.10;98.90
18126;DHT22;53956;52.442;13.284;2022-12-15T15:43:53;0.00;99.50
18126;DHT22;53956;52.442;13.284;2022-12-15T15:46:22;0.00;99.60
18126;DHT22;53956;52.442;13.284;2022-12-15T15:48:52;-3276.70;99.20
18126;DHT22;53956;52.442;13.284;2022-12-15T15:51:21;-3276.70;99.30
18126;DHT22;53956;52.442;13.284;2022-12-15T15:53:49;-3276.70;99.40
18126;DHT22;53956;52.442;13.284;2022-12-15T15:56:16;0.00;99.40
18126;DHT22;53956;52.442;13.284;2022-12-15T15:58:43;0.00;99.50
18126;DHT22;53956;52.442;13.284;2022-12-15T16:01:11;0.00;99.90
18126;DHT22;53956;52.442;13.284;2022-12-15T16:03:37;0.00;99.70
18126;DHT22;53956;52.442;13.284;2022-12-15T16:06:05;0.00;99.40
18126;DHT22;53956;52.442;13.284;2022-12-15T16:08:36;0.00;99.00
18126;DHT22;53956;52.442;13.284;2022-12-15T16:11:03;0.00;99.30
18126;DHT22;53956;52.442;13.284;2022-12-15T16:13:31;0.00;99.20
18126;DHT22;53956;52.442;13.284;2022-12-15T16:15:58;0.00;99.60
18126;DHT22;53956;52.442;13.284;2022-12-15T16:18:25;0.00;99.60
18126;DHT22;53956;52.442;13.284;2022-12-15T16:20:51;-3276.70;98.90
18126;DHT22;53956;52.442;13.284;2022-12-15T16:23:21;0.00;98.80
18126;DHT22;53956;52.442;13.284;2022-12-15T16:25:51;0.10;99.40
18126;DHT22;53956;52.442;13.284;2022-12-15T16:28:20;0.00;99.20
18126;DHT22;53956;52.442;13.284;2022-12-15T16:30:48;0.10;99.30